Time;durP1;ratioP1;P1;durP2;ratioP2;P2;SDS_P1;SDS_P2;PMS_P1;PMS_P2;Temp;Humidity;BMP_temperature;BMP_pressure;BME280_temperature;BME280_humidity;BME280_pressure;Samples;Min_cycle;Max_cycle;Signal;HPM_P1;HPM_P2
2022/12/22 03:26:27;;;;;;;27.15;14.07;;;20.60;55.40;;;;;;5068526;28;20520;-69
2022/12/22 03:28:54;;;;;;;23.08;13.07;;;20.70;55.40;;;;;;5050148;28;20095;-69
2022/12/22 03:31:20;;;;;;;25.65;13.30;;;20.50;55.30;;;;;;5051501;28;20025;-69
2022/12/22 03:33:46;;;;;;;25.05;12.55;;;20.50;55.20;;;;;;5050375;28;20128;-69
2022/12/22 03:36:12;;;;;;;24.05;12.70;;;20.50;55.30;;;;;;5026743;28;20042;-70
2022/12/22 03:38:38;;;;;;;29.65;13.25;;;20.40;55.20;;;;;;5027538;28;20099;-69
2022/12/22 03:41:04;;;;;;;25.55;13.82;;;20.40;55.20;;;;;;5027785;28;20049;-69
2022/12/22 03:49:08;;;;;;;23.30;12.52;;;20.40;55.30;;;;;;5047654;28;20207;-70
2022/12/22 03:51:30;;;;;;;25.52;13.07;;;20.30;55.40;;;;;;5044243;28;20041;-69
2022/12/22 03:53:56;;;;;;;27.38;13.10;;;20.20;55.30;;;;;;5027759;28;20046;-69
2022/12/22 03:56:22;;;;;;;24.73;14.20;;;20.30;55.30;;;;;;5041052;28;20041;-69
2022/12/22 03:58:48;;;;;;;27.40;14.02;;;20.40;55.20;;;;;;5047591;28;20033;-69
2022/12/22 04:01:14;;;;;;;25.75;13.07;;;20.30;55.10;;;;;;5027734;28;20063;-69
2022/12/22 04:03:40;;;;;;;23.80;13.50;;;20.20;55.00;;;;;;5027897;28;20034;-69
2022/12/22 04:06:06;;;;;;;28.15;13.70;;;20.20;55.10;;;;;;5027208;28;20054;-69
2022/12/22 04:08:32;;;;;;;26.42;12.98;;;20.40;55.40;;;;;;5012510;28;20496;-69
2022/12/22 04:13:42;;;;;;;24.02;12.65;;;20.20;55.30;;;;;;5038996;28;20053;-69
2022/12/22 04:16:08;;;;;;;25.15;12.60;;;20.20;55.20;;;;;;5061762;28;20112;-69
2022/12/22 04:18:34;;;;;;;25.33;11.77;;;20.20;55.10;;;;;;5053585;28;20055;-69
2022/12/22 04:21:00;;;;;;;23.17;11.95;;;20.30;55.00;;;;;;5053766;28;20398;-69
2022/12/22 04:23:26;;;;;;;25.52;13.48;;;20.30;54.90;;;;;;5015565;28;20045;-69
2022/12/22 04:25:52;;;;;;;31.13;13.93;;;20.50;54.80;;;;;;5053881;28;20075;-69
2022/12/22 04:28:18;;;;;;;23.92;12.95;;;20.40;54.70;;;;;;5035551;28;20036;-69
2022/12/22 04:30:44;;;;;;;22.58;13.38;;;20.40;54.70;;;;;;5066908;28;20119;-69
2022/12/22 04:33:10;;;;;;;24.77;13.10;;;20.40;54.70;;;;;;5054798;28;20049;-69
2022/12/22 04:35:36;;;;;;;24.83;12.02;;;20.30;54.80;;;;;;5070813;28;20020;-69
2022/12/22 04:38:02;;;;;;;24.38;13.07;;;20.30;54.90;;;;;;5054866;28;20029;-69
2022/12/22 04:40:28;;;;;;;27.50;13.40;;;20.30;54.80;;;;;;5018617;28;20048;-69
2022/12/22 04:42:54;;;;;;;24.45;12.65;;;20.20;55.00;;;;;;5055885;28;20033;-69
2022/12/22 04:45:20;;;;;;;27.40;13.25;;;20.20;55.20;;;;;;5067425;28;20393;-69
2022/12/22 04:47:46;;;;;;;27.77;12.77;;;20.20;55.30;;;;;;5017662;28;20647;-69
2022/12/22 04:50:12;;;;;;;24.13;12.27;;;20.20;55.30;;;;;;5053376;28;20068;-70
2022/12/22 04:52:38;;;;;;;23.58;13.30;;;20.20;55.40;;;;;;5037803;28;20037;-69
2022/12/22 04:55:05;;;;;;;28.58;14.40;;;20.10;55.50;;;;;;5053480;28;20374;-69
2022/12/22 04:57:31;;;;;;;28.17;12.45;;;20.20;55.30;;;;;;5035462;28;20048;-69
2022/12/22 04:59:57;;;;;;;28.95;13.30;;;20.20;55.20;;;;;;5065107;28;20024;-69
2022/12/22 05:02:23;;;;;;;24.80;13.23;;;20.30;55.10;;;;;;5053635;28;20056;-69
2022/12/22 05:04:49;;;;;;;28.88;13.65;;;20.20;54.80;;;;;;5053247;28;20386;-69
2022/12/22 05:07:15;;;;;;;27.48;14.05;;;20.40;54.80;;;;;;5055885;28;20782;-69
2022/12/22 05:09:41;;;;;;;29.73;14.73;;;20.30;54.90;;;;;;5019406;28;20048;-69
2022/12/22 05:14:51;;;;;;;24.73;12.93;;;20.40;55.00;;;;;;5021652;28;20041;-69
2022/12/22 05:17:17;;;;;;;24.88;13.70;;;20.30;54.90;;;;;;5053374;28;20450;-69
2022/12/22 05:19:43;;;;;;;25.33;13.35;;;20.30;54.70;;;;;;5052636;28;20071;-69
2022/12/22 05:22:09;;;;;;;27.02;14.15;;;20.40;54.70;;;;;;5052469;28;20033;-69
2022/12/22 05:24:35;;;;;;;26.63;13.13;;;20.30;54.70;;;;;;5053030;28;20033;-69
2022/12/22 05:27:01;;;;;;;25.52;13.63;;;20.40;54.80;;;;;;5052860;28;20403;-69
2022/12/22 05:29:27;;;;;;;22.77;13.13;;;20.30;54.90;;;;;;5051860;28;20075;-69
2022/12/22 05:31:53;;;;;;;29.10;13.65;;;20.30;54.90;;;;;;5063835;28;20056;-69
2022/12/22 05:34:19;;;;;;;25.17;13.48;;;20.20;54.70;;;;;;5071064;28;20301;-69
2022/12/22 05:36:45;;;;;;;21.33;12.10;;;20.30;54.80;;;;;;5072455;28;20043;-69
2022/12/22 05:39:11;;;;;;;24.35;12.75;;;20.30;54.90;;;;;;5055742;28;20064;-69
2022/12/22 05:41:37;;;;;;;23.00;11.60;;;20.20;55.00;;;;;;5052250;28;20025;-69
2022/12/22 05:44:03;;;;;;;26.75;12.98;;;20.10;55.30;;;;;;5063505;28;20062;-69
2022/12/22 05:46:29;;;;;;;25.88;13.73;;;20.20;55.20;;;;;;5068012;28;20044;-69
2022/12/22 05:48:55;;;;;;;25.98;13.00;;;20.20;54.90;;;;;;5072123;28;20041;-70
2022/12/22 05:51:23;;;;;;;26.15;13.80;;;20.20;55.00;;;;;;5072086;28;20039;-69
2022/12/22 05:53:48;;;;;;;25.90;14.45;;;20.10;55.30;;;;;;5059735;28;20036;-69
2022/12/22 05:56:14;;;;;;;27.67;13.57;;;20.00;55.30;;;;;;5062948;28;20025;-69
2022/12/22 05:58:40;;;;;;;22.92;13.02;;;20.20;55.60;;;;;;5053005;28;20025;-69
2022/12/22 06:01:07;;;;;;;26.60;12.95;;;20.10;55.40;;;;;;5057919;28;20413;-69
2022/12/22 06:03:33;;;;;;;30.85;15.32;;;20.10;55.30;;;;;;5060241;28;20032;-69
2022/12/22 06:05:59;;;;;;;33.78;14.90;;;20.20;55.00;;;;;;5058647;28;20338;-70
2022/12/22 06:08:25;;;;;;;21.88;13.75;;;20.10;55.00;;;;;;5069358;28;20032;-70
2022/12/22 06:10:54;;;;;;;28.55;14.65;;;20.10;55.10;;;;;;5068551;28;20064;-70
2022/12/22 06:13:20;;;;;;;27.15;13.88;;;20.10;55.20;;;;;;5054909;28;20035;-70
2022/12/22 06:15:47;;;;;;;25.95;14.38;;;20.00;55.60;;;;;;5034831;28;20024;-67
2022/12/22 06:18:13;;;;;;;27.10;14.25;;;20.00;55.50;;;;;;5065124;28;20036;-69
2022/12/22 06:20:39;;;;;;;31.08;15.40;;;20.10;56.00;;;;;;5064386;28;20078;-70
2022/12/22 06:23:05;;;;;;;24.83;13.90;;;20.10;55.80;;;;;;5055915;28;20064;-68
2022/12/22 06:25:32;;;;;;;25.75;15.15;;;20.10;55.60;;;;;;5019745;28;20091;-68
2022/12/22 06:27:58;;;;;;;26.42;15.13;;;20.10;54.70;;;;;;5064532;28;20028;-68
2022/12/22 06:30:24;;;;;;;17.95;10.98;;;20.10;51.00;;;;;;5059765;28;20155;-68
2022/12/22 06:32:49;;;;;;;22.25;11.90;;;20.40;46.90;;;;;;5066963;28;20044;-69
2022/12/22 06:35:15;;;;;;;14.30;8.57;;;20.50;46.00;;;;;;5058254;28;20365;-69
2022/12/22 06:37:41;;;;;;;17.85;9.55;;;20.50;44.40;;;;;;5033595;28;20074;-69
2022/12/22 06:40:08;;;;;;;24.35;12.18;;;20.60;46.30;;;;;;5059740;28;20466;-69
2022/12/22 06:45:19;;;;;;;20.85;12.77;;;20.80;44.00;;;;;;5070804;28;20060;-69
2022/12/22 06:47:45;;;;;;;21.95;12.10;;;20.80;44.30;;;;;;5071169;28;20051;-69
2022/12/22 06:50:11;;;;;;;25.77;14.88;;;20.90;45.80;;;;;;5071305;28;20043;-69
2022/12/22 06:52:38;;;;;;;28.17;14.70;;;21.00;44.20;;;;;;5052762;28;20517;-71
2022/12/22 06:55:04;;;;;;;29.13;14.85;;;21.10;57.80;;;;;;5089564;28;20043;-72
2022/12/22 06:57:30;;;;;;;24.30;14.25;;;21.10;58.60;;;;;;5085473;28;20016;-69
2022/12/22 06:59:56;;;;;;;29.55;12.52;;;21.10;60.70;;;;;;5053687;28;20497;-71
2022/12/22 07:02:22;;;;;;;26.13;10.38;;;21.20;62.60;;;;;;5055409;28;20036;-70
2022/12/22 07:04:48;;;;;;;22.55;11.85;;;21.40;62.20;;;;;;5061772;28;20221;-70
2022/12/22 07:07:14;;;;;;;23.52;10.73;;;21.50;62.00;;;;;;5055994;28;20568;-70
2022/12/22 07:09:40;;;;;;;21.25;10.55;;;21.60;60.70;;;;;;5064601;28;20039;-70
2022/12/22 07:12:07;;;;;;;25.02;12.30;;;21.70;59.40;;;;;;5051557;28;20066;-73
2022/12/22 07:14:33;;;;;;;22.83;11.20;;;21.60;58.20;;;;;;5066374;28;20041;-71
2022/12/22 07:16:59;;;;;;;24.85;12.50;;;21.90;57.90;;;;;;5068006;28;20459;-71
2022/12/22 07:19:25;;;;;;;28.48;16.33;;;21.80;57.10;;;;;;5062963;28;20093;-71
2022/12/22 07:21:51;;;;;;;27.13;16.17;;;21.70;54.80;;;;;;5066018;28;20044;-70
2022/12/22 07:24:22;;;;;;;34.58;16.90;;;21.40;57.10;;;;;;5056613;28;20121;-69
2022/12/22 07:26:48;;;;;;;32.10;16.52;;;21.30;58.80;;;;;;5047449;28;20044;-71
2022/12/22 07:29:14;;;;;;;29.83;16.77;;;21.20;60.20;;;;;;5034852;28;20037;-70
2022/12/22 07:31:40;;;;;;;35.17;18.98;;;21.00;60.90;;;;;;5049703;28;20032;-71
2022/12/22 07:34:06;;;;;;;31.95;16.95;;;20.90;61.90;;;;;;5050693;28;20025;-71
2022/12/22 07:36:32;;;;;;;31.73;17.52;;;21.00;62.50;;;;;;5054346;28;20150;-71
2022/12/22 07:38:58;;;;;;;31.10;17.10;;;20.90;62.60;;;;;;5069955;28;20052;-74
2022/12/22 07:44:10;;;;;;;33.28;17.40;;;20.80;63.40;;;;;;5070502;28;20031;-69
2022/12/22 07:46:37;;;;;;;33.45;17.30;;;20.80;64.00;;;;;;5083594;28;20500;-71
2022/12/22 07:51:49;;;;;;;37.15;18.90;;;20.70;63.30;;;;;;5079406;28;20036;-71
2022/12/22 07:54:16;;;;;;;28.73;15.95;;;20.60;63.70;;;;;;5094965;28;20024;-70
2022/12/22 07:56:43;;;;;;;33.50;17.48;;;20.60;64.10;;;;;;5104950;28;20040;-71
2022/12/22 07:59:09;;;;;;;28.77;16.70;;;20.60;65.30;;;;;;5074491;28;20408;-71
2022/12/22 08:01:35;;;;;;;35.22;16.55;;;20.40;65.80;;;;;;5074931;28;20473;-70
2022/12/22 08:04:01;;;;;;;27.15;15.68;;;20.50;65.60;;;;;;5085625;28;20078;-68
2022/12/22 08:06:28;;;;;;;30.45;15.20;;;20.60;65.50;;;;;;5072718;28;20131;-71
2022/12/22 08:08:54;;;;;;;34.67;17.83;;;20.50;66.00;;;;;;5060198;28;20033;-70
2022/12/22 08:11:20;;;;;;;35.38;17.55;;;20.50;66.70;;;;;;5045244;28;20082;-69
2022/12/22 08:13:46;;;;;;;38.38;17.52;;;20.50;66.10;;;;;;5041484;28;20021;-70
2022/12/22 08:16:13;;;;;;;32.75;16.60;;;20.50;65.90;;;;;;5059423;28;20040;-70
2022/12/22 08:18:40;;;;;;;34.58;17.52;;;20.50;65.60;;;;;;5056573;28;20036;-67
2022/12/22 08:21:07;;;;;;;30.33;17.23;;;20.50;65.60;;;;;;5061530;28;20044;-70
2022/12/22 08:23:33;;;;;;;36.35;18.05;;;20.50;65.60;;;;;;5058458;28;20020;-68
2022/12/22 08:26:17;;;;;;;33.83;18.50;;;20.50;66.50;;;;;;5061006;28;20434;-73
2022/12/22 08:28:54;;;;;;;35.38;18.17;;;20.50;67.00;;;;;;5062274;28;20646;-70
2022/12/22 08:31:23;;;;;;;37.70;19.23;;;20.40;66.50;;;;;;5061191;28;20025;-68
2022/12/22 08:33:49;;;;;;;33.38;16.90;;;20.50;66.50;;;;;;5060984;28;20029;-73
2022/12/22 08:36:15;;;;;;;30.55;17.00;;;20.40;66.00;;;;;;5055003;28;20032;-68
2022/12/22 08:38:42;;;;;;;30.60;18.48;;;20.50;66.10;;;;;;5031930;28;20044;-69
2022/12/22 08:41:11;;;;;;;36.50;18.60;;;20.50;65.40;;;;;;5073757;28;20106;-69
2022/12/22 08:43:37;;;;;;;33.40;17.05;;;20.50;65.50;;;;;;5063355;28;20443;-70
2022/12/22 08:46:03;;;;;;;35.15;18.23;;;20.50;65.70;;;;;;5067216;28;20039;-70
2022/12/22 08:48:29;;;;;;;36.38;19.38;;;20.60;65.10;;;;;;5056305;28;20552;-70
2022/12/22 08:50:55;;;;;;;37.13;18.52;;;20.40;64.80;;;;;;5053423;28;20111;-69
2022/12/22 08:53:22;;;;;;;35.35;19.30;;;20.60;65.10;;;;;;5053443;28;20059;-69
2022/12/22 08:55:52;;;;;;;39.03;19.65;;;20.40;65.30;;;;;;5054451;28;20442;-70
2022/12/22 08:58:19;;;;;;;36.60;18.45;;;20.60;65.40;;;;;;5054188;28;20979;-70
2022/12/22 09:00:45;;;;;;;32.92;18.27;;;20.60;65.10;;;;;;5055735;28;20533;-69
2022/12/22 09:03:11;;;;;;;38.75;19.05;;;20.50;65.20;;;;;;5052028;28;20506;-69
2022/12/22 09:05:37;;;;;;;35.10;18.38;;;20.60;65.00;;;;;;5052501;28;20039;-69
2022/12/22 09:08:04;;;;;;;36.60;17.92;;;20.50;65.50;;;;;;5052888;28;20047;-70
2022/12/22 09:10:30;;;;;;;36.40;18.85;;;20.50;65.40;;;;;;5052333;28;20029;-69
2022/12/22 09:12:57;;;;;;;35.33;18.35;;;20.40;65.00;;;;;;5036276;28;20037;-70
2022/12/22 09:15:23;;;;;;;38.55;19.48;;;20.40;65.00;;;;;;5051979;28;20071;-70
2022/12/22 09:17:49;;;;;;;37.20;18.35;;;20.30;65.10;;;;;;5052652;28;20064;-70
2022/12/22 09:20:15;;;;;;;35.83;18.02;;;20.40;64.90;;;;;;5052780;28;20033;-70
2022/12/22 09:22:41;;;;;;;36.03;19.33;;;20.50;65.10;;;;;;5052842;28;20037;-69
2022/12/22 09:25:08;;;;;;;39.67;19.42;;;20.40;65.10;;;;;;5052715;28;20063;-70
2022/12/22 09:27:34;;;;;;;36.78;19.48;;;20.30;65.50;;;;;;5057501;28;20032;-70
2022/12/22 09:30:00;;;;;;;41.58;21.58;;;20.30;65.00;;;;;;5052677;28;20059;-71
2022/12/22 09:32:27;;;;;;;37.50;20.80;;;20.40;64.90;;;;;;5057930;28;20158;-69
2022/12/22 09:34:53;;;;;;;36.47;20.50;;;20.40;65.40;;;;;;5071892;28;20036;-70
2022/12/22 09:37:19;;;;;;;41.75;19.85;;;20.30;65.90;;;;;;5072077;28;20036;-71
2022/12/22 09:39:45;;;;;;;43.40;20.73;;;20.40;66.00;;;;;;5055128;28;20033;-71
2022/12/22 09:42:16;;;;;;;37.58;19.80;;;20.30;66.00;;;;;;5051976;28;20110;-70
2022/12/22 09:44:45;;;;;;;45.22;20.27;;;20.40;65.60;;;;;;5051260;28;20044;-70
2022/12/22 09:47:16;;;;;;;40.95;21.20;;;20.40;65.60;;;;;;5033662;28;20025;-68
2022/12/22 09:49:43;;;;;;;37.38;20.25;;;20.40;65.40;;;;;;5071482;28;20028;-70
2022/12/22 09:52:29;;;;;;;39.40;19.05;;;20.40;65.40;;;;;;5036135;28;20170;-70
2022/12/22 09:54:55;;;;;;;41.22;20.63;;;20.30;65.80;;;;;;5071332;28;20029;-70
2022/12/22 09:57:25;;;;;;;45.13;22.40;;;20.30;65.40;;;;;;5072025;28;20167;-70
2022/12/22 09:59:51;;;;;;;36.55;18.38;;;20.40;65.50;;;;;;5054402;28;20037;-70
2022/12/22 10:02:52;;;;;;;40.78;18.92;;;20.60;65.40;;;;;;5052290;28;20159;-70
2022/12/22 10:05:44;;;;;;;37.08;19.67;;;20.50;65.20;;;;;;4954141;28;20618;-71
2022/12/22 10:08:12;;;;;;;41.83;19.65;;;20.50;64.80;;;;;;5009618;28;20050;-71
2022/12/22 10:10:39;;;;;;;46.45;23.10;;;20.70;64.70;;;;;;5009926;28;20057;-71
2022/12/22 10:13:11;;;;;;;41.28;21.15;;;20.60;64.40;;;;;;5010043;28;20120;-71
2022/12/22 10:15:40;;;;;;;38.95;19.63;;;20.50;64.80;;;;;;5009465;28;20041;-71
2022/12/22 10:18:09;;;;;;;39.80;19.55;;;20.70;65.00;;;;;;5009731;28;20121;-70
2022/12/22 10:20:37;;;;;;;42.60;21.17;;;20.60;64.70;;;;;;5009502;28;20030;-71
2022/12/22 10:23:25;;;;;;;38.97;20.67;;;20.50;64.90;;;;;;5009255;28;20442;-70
2022/12/22 10:26:08;;;;;;;39.67;18.42;;;20.50;64.90;;;;;;5009602;28;20201;-70
2022/12/22 10:28:39;;;;;;;43.20;21.33;;;20.40;65.10;;;;;;5009702;28;20112;-70
2022/12/22 10:31:11;;;;;;;46.10;23.25;;;20.30;64.70;;;;;;5009580;28;20564;-70
2022/12/22 10:33:38;;;;;;;37.83;18.98;;;20.30;64.40;;;;;;5016589;28;20049;-71
2022/12/22 10:36:06;;;;;;;38.38;19.92;;;20.40;64.50;;;;;;5008197;28;20054;-71
2022/12/22 10:39:04;;;;;;;42.10;23.48;;;20.40;64.30;;;;;;5009129;28;20041;-70
2022/12/22 10:41:34;;;;;;;38.60;19.45;;;20.40;64.20;;;;;;4998804;28;20048;-71
2022/12/22 10:44:05;;;;;;;39.50;20.45;;;20.40;64.40;;;;;;5043677;28;20135;-70
2022/12/22 10:46:44;;;;;;;44.03;21.35;;;20.30;64.20;;;;;;5049015;28;20068;-70
2022/12/22 10:49:18;;;;;;;37.10;18.63;;;20.30;64.20;;;;;;5046044;28;20119;-69
2022/12/22 10:51:51;;;;;;;36.90;19.40;;;20.40;64.20;;;;;;5046702;28;20037;-71
2022/12/22 10:54:32;;;;;;;44.08;21.88;;;20.40;64.10;;;;;;5048778;28;20116;-71
2022/12/22 10:57:22;;;;;;;37.28;20.08;;;20.40;64.00;;;;;;5044842;28;20079;-71
2022/12/22 10:59:57;;;;;;;40.30;20.70;;;20.40;64.20;;;;;;5031969;28;20044;-71
2022/12/22 11:02:29;;;;;;;42.40;21.65;;;20.50;63.90;;;;;;5048623;28;20722;-70
2022/12/22 11:05:06;;;;;;;42.30;22.45;;;20.60;63.70;;;;;;5048141;28;20537;-71
2022/12/22 11:07:36;;;;;;;39.22;20.52;;;20.40;63.50;;;;;;5046544;28;20053;-71
2022/12/22 11:10:13;;;;;;;40.55;19.77;;;20.40;63.70;;;;;;5048296;28;20559;-71
2022/12/22 11:13:16;;;;;;;37.75;19.65;;;20.40;63.90;;;;;;5046889;28;20044;-71
2022/12/22 11:15:48;;;;;;;39.07;20.23;;;20.40;63.90;;;;;;5028191;28;20069;-70
2022/12/22 11:18:51;;;;;;;41.70;21.60;;;20.30;63.70;;;;;;5055448;28;20064;-70
2022/12/22 11:21:38;;;;;;;46.37;21.20;;;20.40;63.50;;;;;;5070836;28;20028;-70
2022/12/22 11:24:27;;;;;;;34.85;18.58;;;20.20;63.50;;;;;;5047723;28;20721;-71
2022/12/22 11:27:34;;;;;;;34.83;16.33;;;20.20;63.50;;;;;;4949581;28;20134;-71
2022/12/22 11:30:11;;;;;;;36.35;19.08;;;20.30;63.60;;;;;;4968518;28;20073;-70
2022/12/22 11:33:04;;;;;;;44.33;20.35;;;20.40;63.20;;;;;;4969369;28;20082;-71
2022/12/22 11:35:44;;;;;;;38.10;18.87;;;20.40;62.70;;;;;;4969163;28;20082;-70
2022/12/22 11:38:15;;;;;;;37.00;18.00;;;20.30;63.50;;;;;;4967587;28;20335;-67
2022/12/22 11:40:45;;;;;;;36.70;17.55;;;20.30;63.20;;;;;;4955857;28;20094;-70
2022/12/22 11:43:29;;;;;;;29.52;15.23;;;20.40;62.80;;;;;;4954100;28;20513;-68
2022/12/22 11:46:32;;;;;;;31.35;17.00;;;20.40;49.90;;;;;;4970837;28;20041;-71
2022/12/22 11:49:07;;;;;;;51.20;15.60;;;20.60;51.70;;;;;;4918117;29;20048;-70
2022/12/22 11:51:45;;;;;;;24.67;14.32;;;21.00;60.50;;;;;;4914759;29;20135;-71
2022/12/22 11:54:35;;;;;;;24.70;10.90;;;21.40;49.00;;;;;;4918171;29;20150;-72
2022/12/22 11:57:12;;;;;;;23.40;13.20;;;21.50;44.40;;;;;;4948483;28;20036;-70
2022/12/22 12:00:02;;;;;;;39.30;17.02;;;21.70;51.80;;;;;;4948016;28;20058;-69
2022/12/22 12:03:00;;;;;;;33.60;18.23;;;21.90;45.50;;;;;;4918318;29;20048;-69
2022/12/22 12:05:35;;;;;;;25.75;16.00;;;22.00;46.50;;;;;;4903717;29;20062;-69
2022/12/22 12:08:16;;;;;;;34.72;19.58;;;22.10;47.70;;;;;;4898747;29;20730;-68
2022/12/22 12:10:46;;;;;;;28.80;11.85;;;22.30;50.60;;;;;;4906515;29;20067;-70
2022/12/22 12:13:19;;;;;;;27.63;15.25;;;22.30;49.80;;;;;;4909981;29;20055;-70
2022/12/22 12:16:04;;;;;;;27.65;16.80;;;22.50;50.80;;;;;;4910095;29;20044;-71
2022/12/22 12:18:58;;;;;;;27.73;16.73;;;22.50;44.10;;;;;;4911587;29;20051;-71
2022/12/22 12:21:24;;;;;;;;;;;22.50;39.80;;;;;;4908625;29;20026;-69
2022/12/22 12:24:09;;;;;;;21.05;12.75;;;22.60;37.40;;;;;;4910885;29;20632;-70
2022/12/22 12:27:02;;;;;;;21.13;12.35;;;22.50;35.60;;;;;;4941134;28;21813;-70
2022/12/22 12:29:45;;;;;;;24.75;12.93;;;22.60;35.30;;;;;;4941771;28;20058;-69
2022/12/22 12:32:20;;;;;;;31.02;15.80;;;22.60;37.40;;;;;;4948067;28;20099;-71
2022/12/22 12:34:52;;;;;;;21.42;12.10;;;22.60;36.80;;;;;;4949755;28;20046;-71
2022/12/22 12:37:25;;;;;;;30.50;15.77;;;22.60;35.50;;;;;;4948960;28;20363;-69
2022/12/22 12:40:30;;;;;;;18.90;10.95;;;22.60;35.90;;;;;;4994248;28;20399;-71
2022/12/22 12:42:57;;;;;;;23.38;14.70;;;22.60;36.10;;;;;;5060315;28;20048;-70
2022/12/22 12:45:33;;;;;;;24.05;13.98;;;22.60;35.20;;;;;;5079054;28;20106;-70
2022/12/22 12:48:23;;;;;;;21.05;13.35;;;22.60;35.30;;;;;;5093945;28;20118;-70
2022/12/22 12:50:53;;;;;;;26.50;14.50;;;22.80;36.40;;;;;;5006106;28;20558;-71
2022/12/22 12:53:21;;;;;;;35.67;18.42;;;22.80;39.10;;;;;;4959570;28;20491;-69
2022/12/22 12:55:52;;;;;;;34.25;17.58;;;23.00;55.20;;;;;;4996661;28;20046;-70
2022/12/22 12:58:34;;;;;;;36.38;19.23;;;22.90;54.70;;;;;;4997112;28;20125;-70
2022/12/22 13:01:28;;;;;;;31.15;16.38;;;22.90;55.00;;;;;;4998430;28;20041;-71
2022/12/22 13:03:54;;;;;;;31.10;16.17;;;22.80;55.60;;;;;;4996959;28;20030;-70
2022/12/22 13:06:47;;;;;;;26.48;14.50;;;22.80;56.00;;;;;;5005150;28;20069;-71
2022/12/22 13:09:19;;;;;;;;;;;22.80;56.30;;;;;;4997358;28;20156;-70
2022/12/22 13:11:45;;;;;;;27.90;14.45;;;22.70;56.50;;;;;;4996049;28;19914;-71
2022/12/22 13:14:31;;;;;;;30.88;17.20;;;22.70;56.60;;;;;;4992222;28;20042;-69
2022/12/22 13:17:35;;;;;;;37.53;19.30;;;22.80;56.60;;;;;;5004010;28;20093;-70
2022/12/22 13:20:02;;;;;;;36.50;19.77;;;22.80;57.20;;;;;;4994271;28;20034;-70
2022/12/22 13:22:28;;;;;;;34.22;18.80;;;22.50;58.40;;;;;;4998119;28;20046;-70
2022/12/22 13:24:55;;;;;;;35.45;17.58;;;22.30;58.90;;;;;;5008058;28;20045;-70
2022/12/22 13:27:21;;;;;;;33.50;17.67;;;22.20;58.70;;;;;;5026744;28;20036;-70
2022/12/22 13:29:50;;;;;;;32.85;17.73;;;22.20;58.80;;;;;;5084934;28;20473;-71
2022/12/22 13:32:39;;;;;;;35.60;20.45;;;22.10;59.20;;;;;;5081663;28;20067;-70
2022/12/22 13:35:44;;;;;;;32.83;17.83;;;22.20;59.30;;;;;;5076340;28;20040;-72
2022/12/22 13:38:33;;;;;;;35.20;18.25;;;22.10;59.70;;;;;;5090545;28;20020;-70
2022/12/22 13:41:03;;;;;;;36.00;19.10;;;21.90;60.10;;;;;;5083269;28;20036;-69
2022/12/22 13:43:31;;;;;;;32.88;18.77;;;21.90;60.40;;;;;;5073362;28;20039;-69
2022/12/22 13:46:00;;;;;;;35.80;19.70;;;21.90;60.70;;;;;;5093271;28;20415;-68
2022/12/22 13:48:47;;;;;;;32.63;18.40;;;21.70;60.60;;;;;;5101938;28;20032;-71
2022/12/22 13:51:19;;;;;;;36.38;18.23;;;21.70;60.40;;;;;;5091734;28;20039;-69
2022/12/22 13:53:53;;;;;;;34.70;19.20;;;21.60;61.30;;;;;;5083647;28;20362;-69
2022/12/22 13:56:23;;;;;;;35.00;17.52;;;21.60;61.50;;;;;;5074784;28;20037;-70
2022/12/22 13:58:59;;;;;;;38.95;19.27;;;21.70;62.20;;;;;;5083289;28;20036;-70
2022/12/22 14:01:25;;;;;;;38.58;18.65;;;21.60;61.60;;;;;;5053234;28;20124;-70
2022/12/22 14:04:00;;;;;;;36.47;18.20;;;21.60;61.70;;;;;;5074363;28;20115;-69
2022/12/22 14:06:37;;;;;;;37.50;20.38;;;21.50;62.20;;;;;;5070966;28;20064;-69
2022/12/22 14:09:29;;;;;;;32.42;17.30;;;21.50;62.30;;;;;;5051925;28;20437;-70
2022/12/22 14:12:01;;;;;;;35.20;18.60;;;21.50;62.40;;;;;;4935376;29;20102;-70
2022/12/22 14:14:48;;;;;;;40.33;18.45;;;21.50;62.50;;;;;;4953345;28;20043;-70
2022/12/22 14:17:27;;;;;;;35.65;18.45;;;21.50;62.80;;;;;;4950575;28;20057;-70
2022/12/22 14:19:59;;;;;;;37.78;18.17;;;21.50;62.80;;;;;;4934839;29;20066;-70
2022/12/22 14:22:35;;;;;;;34.28;17.52;;;21.50;62.90;;;;;;4957545;28;20134;-70
2022/12/22 14:25:13;;;;;;;34.33;17.05;;;21.50;63.20;;;;;;4950875;28;20043;-71
2022/12/22 14:27:49;;;;;;;33.20;17.60;;;21.50;63.30;;;;;;4956581;28;20820;-70
2022/12/22 14:30:25;;;;;;;32.17;17.80;;;21.40;63.00;;;;;;4953617;28;20035;-70
2022/12/22 14:32:54;;;;;;;33.42;16.95;;;21.50;63.50;;;;;;4970366;28;20498;-70
2022/12/22 14:35:20;;;;;;;34.22;18.15;;;21.40;63.20;;;;;;4970343;28;20492;-70
2022/12/22 14:37:51;;;;;;;39.05;18.02;;;21.50;63.30;;;;;;4969346;28;20082;-70
2022/12/22 14:40:37;;;;;;;32.05;16.58;;;21.50;63.40;;;;;;4951744;28;20046;-70
2022/12/22 14:43:17;;;;;;;35.65;16.55;;;21.40;63.80;;;;;;4968456;28;20624;-71
2022/12/22 14:45:48;;;;;;;38.30;19.35;;;21.40;63.70;;;;;;4967664;28;20035;-70
2022/12/22 14:48:33;;;;;;;38.67;18.77;;;21.30;63.90;;;;;;4996045;28;20045;-70
2022/12/22 14:51:02;;;;;;;36.28;18.67;;;21.30;64.10;;;;;;5069884;28;20428;-71
2022/12/22 14:53:45;;;;;;;32.67;16.15;;;21.40;64.10;;;;;;5067910;28;20097;-70
2022/12/22 14:56:13;;;;;;;31.17;17.23;;;21.40;64.50;;;;;;5014915;28;20059;-70
2022/12/22 14:58:41;;;;;;;32.95;16.95;;;21.50;64.10;;;;;;5067262;28;20107;-71
2022/12/22 15:01:25;;;;;;;29.77;17.02;;;21.60;63.50;;;;;;5058437;28;20037;-70
2022/12/22 15:04:14;;;;;;;36.67;19.05;;;21.70;63.00;;;;;;5033122;28;20444;-70
2022/12/22 15:06:44;;;;;;;34.05;18.17;;;21.80;62.50;;;;;;5050862;28;20375;-71
2022/12/22 15:09:13;;;;;;;39.80;19.73;;;21.90;62.40;;;;;;5051930;28;20052;-71
2022/12/22 15:11:55;;;;;;;35.33;17.77;;;22.00;62.30;;;;;;5050988;28;20032;-70
2022/12/22 15:14:28;;;;;;;36.53;17.73;;;22.00;62.00;;;;;;5060614;28;20041;-70
2022/12/22 15:16:56;;;;;;;25.45;14.63;;;22.10;62.20;;;;;;5059509;28;20041;-71
2022/12/22 15:19:22;;;;;;;33.72;17.02;;;22.10;62.50;;;;;;5021692;28;20033;-71
2022/12/22 15:21:49;;;;;;;31.83;16.92;;;22.10;62.30;;;;;;5068372;28;20090;-72
2022/12/22 15:24:17;;;;;;;30.40;16.98;;;22.20;62.30;;;;;;5068107;28;20029;-72
2022/12/22 15:26:44;;;;;;;31.60;16.92;;;22.20;66.50;;;;;;5072918;28;20050;-70
2022/12/22 15:29:10;;;;;;;31.92;20.20;;;22.30;68.60;;;;;;5065963;28;20029;-73
2022/12/22 15:31:37;;;;;;;16.73;9.00;;;22.30;65.10;;;;;;5026379;28;20048;-76
2022/12/22 15:34:08;;;;;;;31.45;17.73;;;22.50;60.00;;;;;;5070959;28;20056;-74
2022/12/22 15:36:34;;;;;;;24.73;12.30;;;23.00;60.10;;;;;;5061821;28;20111;-72
2022/12/22 15:39:00;;;;;;;29.50;16.42;;;23.10;52.30;;;;;;5056710;28;20033;-71
2022/12/22 15:41:27;;;;;;;25.05;15.35;;;23.20;52.30;;;;;;5050846;28;20044;-71
2022/12/22 15:43:52;;;;;;;19.17;11.45;;;23.30;51.50;;;;;;5034422;28;20141;-72
2022/12/22 15:46:20;;;;;;;27.10;15.40;;;23.30;50.40;;;;;;5056817;28;20044;-73
2022/12/22 15:48:46;;;;;;;26.02;16.80;;;23.50;50.20;;;;;;5050531;28;20029;-68
2022/12/22 15:51:25;;;;;;;27.98;17.55;;;23.50;50.20;;;;;;5072307;28;20059;-69
2022/12/22 15:53:52;;;;;;;31.77;21.52;;;23.70;45.80;;;;;;5056818;28;20052;-68
2022/12/22 15:56:21;;;;;;;30.30;18.80;;;23.60;44.60;;;;;;5063641;28;20043;-69
2022/12/22 15:58:47;;;;;;;33.92;22.77;;;23.70;44.60;;;;;;5054838;28;20024;-69
2022/12/22 16:01:14;;;;;;;17.13;9.20;;;23.60;45.50;;;;;;5052026;28;20492;-70
2022/12/22 16:03:39;;;;;;;6.20;4.47;;;23.60;43.70;;;;;;5063173;28;20056;-71
2022/12/22 16:06:12;;;;;;;14.77;5.45;;;23.70;56.20;;;;;;5055688;28;20399;-73
2022/12/22 16:08:41;;;;;;;6.18;3.97;;;24.10;57.00;;;;;;5057325;28;20044;-72
2022/12/22 16:11:07;;;;;;;8.75;4.07;;;24.20;55.90;;;;;;5052856;28;20041;-71
2022/12/22 16:13:36;;;;;;;21.42;13.65;;;24.40;54.70;;;;;;5051577;28;20028;-72
2022/12/22 16:16:02;;;;;;;23.88;14.65;;;24.50;48.40;;;;;;5059827;28;20111;-70
2022/12/22 16:18:28;;;;;;;22.30;14.63;;;24.70;45.10;;;;;;5073127;28;20032;-71
2022/12/22 16:20:59;;;;;;;21.67;13.63;;;24.60;43.40;;;;;;5051451;28;20059;-68
2022/12/22 16:23:26;;;;;;;24.17;15.40;;;24.70;45.50;;;;;;5001495;28;20037;-70
2022/12/22 16:25:54;;;;;;;33.20;21.48;;;24.70;43.90;;;;;;5058320;28;20485;-71
2022/12/22 16:28:22;;;;;;;32.50;21.13;;;24.60;40.80;;;;;;5073709;28;20051;-70
2022/12/22 16:30:49;;;;;;;24.70;16.50;;;24.50;43.10;;;;;;5056337;28;20517;-69
2022/12/22 16:33:15;;;;;;;32.40;21.67;;;24.50;41.80;;;;;;5053387;28;20033;-69